Time;durP1;ratioP1;P1;durP2;ratioP2;P2;SDS_P1;SDS_P2;PMS_P1;PMS_P2;Temp;Humidity;BMP_temperature;BMP_pressure;BME280_temperature;BME280_humidity;BME280_pressure;Samples;Min_cycle;Max_cycle;Signal;HPM_P1;HPM_P2
2021/12/23 00:01:46;;;;;;;15.20;7.47;;;-1.60;97.30;;;;;;5040140;28;21020;-79
2021/12/23 00:04:12;;;;;;;22.63;8.00;;;-1.70;97.30;;;;;;5040135;28;20417;-79
2021/12/23 00:06:40;;;;;;;20.00;8.20;;;-1.70;97.30;;;;;;5038074;28;20817;-78
2021/12/23 00:09:06;;;;;;;20.00;7.77;;;-1.70;97.30;;;;;;5033695;28;20422;-79
2021/12/23 00:11:32;;;;;;;20.30;9.03;;;-1.80;97.30;;;;;;5034265;28;20492;-81
2021/12/23 00:14:07;;;;;;;19.40;8.27;;;-1.80;97.30;;;;;;5055188;28;20605;-81
2021/12/23 00:17:05;;;;;;;16.50;8.30;;;-1.80;97.30;;;;;;5037601;28;20926;-82
2021/12/23 00:24:55;;;;;;;15.50;7.93;;;-1.90;97.30;;;;;;5051487;28;20241;-77
2021/12/23 00:27:34;;;;;;;20.40;7.90;;;-1.90;97.30;;;;;;5033975;28;20500;-79
2021/12/23 00:30:06;;;;;;;22.83;8.40;;;-1.90;97.30;;;;;;5054821;28;20449;-79
2021/12/23 00:32:35;;;;;;;21.40;7.57;;;-1.90;97.30;;;;;;5036071;28;20464;-80
2021/12/23 00:35:14;;;;;;;20.93;8.20;;;-1.90;97.30;;;;;;5033643;28;20862;-80
2021/12/23 00:37:43;;;;;;;15.70;7.57;;;-1.90;97.30;;;;;;5053575;28;20465;-79
2021/12/23 00:40:11;;;;;;;18.97;8.03;;;-1.90;97.30;;;;;;5039957;28;20434;-79
2021/12/23 00:42:38;;;;;;;19.90;8.23;;;-1.90;97.30;;;;;;5039976;28;20457;-80
2021/12/23 00:45:05;;;;;;;17.70;9.27;;;-1.90;97.30;;;;;;5057481;28;20479;-80
2021/12/23 00:47:30;;;;;;;16.90;7.73;;;-1.90;97.30;;;;;;5034576;28;20557;-81
2021/12/23 00:49:57;;;;;;;14.17;7.60;;;-1.90;97.30;;;;;;5035013;28;20457;-81
2021/12/23 00:52:35;;;;;;;17.60;7.93;;;-1.90;97.30;;;;;;5034823;28;20179;-81
2021/12/23 00:55:01;;;;;;;19.10;7.37;;;-1.90;97.30;;;;;;5035154;28;20410;-81
2021/12/23 00:57:29;;;;;;;20.33;8.03;;;-1.90;97.30;;;;;;5033577;28;20414;-77
2021/12/23 00:59:56;;;;;;;18.13;8.63;;;-1.90;97.30;;;;;;5032644;28;20970;-77
2021/12/23 01:02:29;;;;;;;19.57;8.27;;;-1.90;97.30;;;;;;5031458;28;20908;-76
2021/12/23 01:04:55;;;;;;;19.63;7.73;;;-1.90;97.30;;;;;;5035903;28;20410;-77
2021/12/23 01:07:21;;;;;;;19.17;7.17;;;-1.90;97.30;;;;;;5036753;28;20841;-80
2021/12/23 01:09:46;;;;;;;21.43;9.03;;;-1.80;97.30;;;;;;5047196;28;20182;-80
2021/12/23 01:12:15;;;;;;;18.50;8.07;;;-1.80;97.30;;;;;;5057375;28;20171;-81
2021/12/23 01:14:52;;;;;;;22.93;7.10;;;-1.80;97.30;;;;;;5057636;28;20690;-80
2021/12/23 01:19:51;;;;;;;14.30;6.60;;;-1.80;97.30;;;;;;5054697;28;20484;-80
2021/12/23 01:22:18;;;;;;;18.87;7.63;;;-1.70;97.30;;;;;;5037692;28;20425;-81
2021/12/23 01:24:44;;;;;;;14.80;7.50;;;-1.70;97.30;;;;;;5036850;28;20415;-84
2021/12/23 01:27:10;;;;;;;22.00;8.20;;;-1.70;97.30;;;;;;5036784;28;20809;-82
2021/12/23 01:29:36;;;;;;;15.60;7.00;;;-1.70;97.30;;;;;;5037083;28;20424;-82
2021/12/23 01:32:06;;;;;;;19.53;7.60;;;-1.70;97.30;;;;;;5036110;28;20441;-82
2021/12/23 01:34:35;;;;;;;17.93;7.40;;;-1.70;97.30;;;;;;5040554;28;20421;-81
2021/12/23 01:37:02;;;;;;;24.00;8.33;;;-1.70;97.30;;;;;;5051161;28;20485;-79
2021/12/23 01:39:28;;;;;;;25.83;7.30;;;-1.70;97.30;;;;;;5032721;28;20848;-78
2021/12/23 01:41:54;;;;;;;20.17;7.63;;;-1.70;97.30;;;;;;5032228;28;20446;-79
2021/12/23 01:44:19;;;;;;;22.53;7.27;;;-1.70;97.30;;;;;;5032066;28;20442;-78
2021/12/23 01:46:45;;;;;;;20.27;7.57;;;-1.60;97.30;;;;;;5032077;28;20200;-79
2021/12/23 01:49:12;;;;;;;33.23;8.57;;;-1.60;97.30;;;;;;5032507;28;20366;-80
2021/12/23 01:51:38;;;;;;;17.40;8.13;;;-1.60;97.30;;;;;;5033435;28;20224;-76
2021/12/23 01:54:04;;;;;;;12.50;6.00;;;-1.60;97.30;;;;;;5032958;28;20522;-77
2021/12/23 01:56:30;;;;;;;13.17;6.30;;;-1.50;97.30;;;;;;5032669;28;20216;-80
2021/12/23 01:58:56;;;;;;;14.97;6.47;;;-1.50;97.30;;;;;;5033453;28;20905;-82
2021/12/23 02:01:22;;;;;;;14.43;7.53;;;-1.50;97.30;;;;;;5031916;28;20447;-80
2021/12/23 02:03:48;;;;;;;19.70;7.87;;;-1.50;97.30;;;;;;5032149;28;20427;-80
2021/12/23 02:06:14;;;;;;;19.70;7.40;;;-1.50;97.30;;;;;;5031525;28;20871;-80
2021/12/23 02:08:40;;;;;;;15.50;6.97;;;-1.50;97.30;;;;;;5035163;28;20187;-79
2021/12/23 02:11:08;;;;;;;14.90;6.53;;;-1.50;97.30;;;;;;5052509;28;20196;-80
2021/12/23 02:13:34;;;;;;;18.13;7.90;;;-1.50;97.30;;;;;;5045323;28;20415;-80
2021/12/23 02:16:01;;;;;;;13.97;7.17;;;-1.50;97.30;;;;;;5047850;28;20953;-80
2021/12/23 02:18:27;;;;;;;16.50;8.43;;;-1.50;97.30;;;;;;5072477;28;20494;-81
2021/12/23 02:20:53;;;;;;;16.10;7.07;;;-1.50;97.30;;;;;;5072865;28;20441;-80
2021/12/23 02:23:20;;;;;;;22.67;8.60;;;-1.50;97.30;;;;;;5053059;28;20419;-80
2021/12/23 02:25:45;;;;;;;16.97;7.07;;;-1.50;97.30;;;;;;5038753;28;20427;-81
2021/12/23 02:28:19;;;;;;;19.10;7.70;;;-1.50;97.30;;;;;;5049652;28;20422;-81
2021/12/23 02:30:51;;;;;;;20.23;7.27;;;-1.50;97.30;;;;;;5040170;28;20737;-81
2021/12/23 02:33:16;;;;;;;20.83;7.40;;;-1.50;97.30;;;;;;5054906;28;20464;-81
2021/12/23 02:35:43;;;;;;;20.50;7.37;;;-1.50;97.30;;;;;;5045413;28;20971;-81
2021/12/23 02:38:08;;;;;;;18.93;6.97;;;-1.40;97.30;;;;;;5040671;28;20172;-78
2021/12/23 02:40:38;;;;;;;22.67;7.60;;;-1.40;97.30;;;;;;5040179;28;20434;-77
2021/12/23 02:43:25;;;;;;;19.77;7.83;;;-1.40;97.30;;;;;;5034062;28;20266;-77
2021/12/23 02:45:54;;;;;;;16.37;6.40;;;-1.50;97.30;;;;;;5034428;28;20961;-77
2021/12/23 02:48:24;;;;;;;18.93;6.00;;;-1.50;97.30;;;;;;5033756;28;20421;-77
2021/12/23 02:50:52;;;;;;;18.90;6.97;;;-1.50;97.30;;;;;;5034130;28;21015;-77
2021/12/23 02:53:19;;;;;;;15.93;7.40;;;-1.50;97.30;;;;;;5033793;28;20476;-78
2021/12/23 02:55:45;;;;;;;16.20;7.47;;;-1.50;97.30;;;;;;5044711;28;20413;-78
2021/12/23 02:58:11;;;;;;;20.47;7.47;;;-1.50;97.30;;;;;;5053684;28;20931;-78
2021/12/23 03:00:39;;;;;;;16.57;7.20;;;-1.50;97.30;;;;;;5053713;28;20198;-79
2021/12/23 03:03:04;;;;;;;14.70;7.40;;;-1.50;97.30;;;;;;5053593;28;20521;-79
2021/12/23 03:05:30;;;;;;;17.77;7.37;;;-1.50;97.30;;;;;;5054397;28;21101;-80
2021/12/23 03:07:57;;;;;;;16.20;7.30;;;-1.50;97.30;;;;;;5054121;28;20277;-81
2021/12/23 03:10:23;;;;;;;15.17;6.47;;;-1.50;97.30;;;;;;5072730;28;20592;-80
2021/12/23 03:12:49;;;;;;;11.87;6.13;;;-1.50;97.30;;;;;;5074053;28;20416;-81
2021/12/23 03:15:15;;;;;;;20.73;7.63;;;-1.50;97.30;;;;;;5074211;28;20586;-81
2021/12/23 03:17:41;;;;;;;18.83;8.17;;;-1.50;97.30;;;;;;5074629;28;20429;-80
2021/12/23 03:20:07;;;;;;;19.03;8.40;;;-1.50;97.30;;;;;;5075629;28;20218;-81
2021/12/23 03:22:32;;;;;;;13.33;6.50;;;-1.50;97.30;;;;;;5074820;28;20179;-77
2021/12/23 03:24:58;;;;;;;18.60;7.00;;;-1.50;97.30;;;;;;5091548;28;20440;-78
2021/12/23 03:27:24;;;;;;;20.73;8.70;;;-1.50;97.30;;;;;;5090784;28;20202;-78
2021/12/23 03:29:49;;;;;;;16.33;7.60;;;-1.50;97.30;;;;;;5073499;28;20175;-76
2021/12/23 03:32:15;;;;;;;19.37;7.50;;;-1.50;97.30;;;;;;5072824;28;20193;-77
2021/12/23 03:34:40;;;;;;;14.50;6.70;;;-1.50;97.30;;;;;;5074237;28;20178;-80
2021/12/23 03:37:06;;;;;;;14.83;6.60;;;-1.50;97.30;;;;;;5078088;28;20233;-78
2021/12/23 03:39:32;;;;;;;12.93;6.40;;;-1.50;97.30;;;;;;5079848;28;20174;-80
2021/12/23 03:41:58;;;;;;;20.00;7.60;;;-1.50;97.30;;;;;;5074198;28;20670;-81
2021/12/23 03:44:24;;;;;;;13.17;6.90;;;-1.50;97.30;;;;;;5079806;28;20186;-80
2021/12/23 03:46:49;;;;;;;16.13;7.23;;;-1.50;97.30;;;;;;5078478;28;20795;-81
2021/12/23 03:49:15;;;;;;;24.10;7.13;;;-1.50;97.30;;;;;;5078251;28;20179;-81
2021/12/23 03:51:40;;;;;;;17.87;8.07;;;-1.50;97.30;;;;;;5066475;28;20235;-80
2021/12/23 03:54:06;;;;;;;15.23;7.60;;;-1.50;97.30;;;;;;5037551;28;20233;-81
2021/12/23 03:56:32;;;;;;;12.00;6.30;;;-1.40;97.30;;;;;;5038653;28;20176;-82
2021/12/23 03:58:58;;;;;;;24.20;7.90;;;-1.40;97.30;;;;;;5038305;28;20176;-80
2021/12/23 04:01:27;;;;;;;15.63;7.53;;;-1.50;97.30;;;;;;5037388;28;20445;-77
2021/12/23 04:03:53;;;;;;;15.40;7.00;;;-1.50;97.30;;;;;;5065426;28;20453;-77
2021/12/23 04:06:20;;;;;;;18.40;7.60;;;-1.50;97.30;;;;;;5050506;28;21099;-76
2021/12/23 04:08:46;;;;;;;16.43;6.13;;;-1.50;97.30;;;;;;5032826;28;20469;-77
2021/12/23 04:11:11;;;;;;;13.47;6.40;;;-1.40;97.30;;;;;;5032636;28;20525;-76
2021/12/23 04:13:37;;;;;;;15.33;6.73;;;-1.40;97.30;;;;;;5037078;28;20239;-79
2021/12/23 04:16:03;;;;;;;24.73;7.90;;;-1.40;97.30;;;;;;5033851;28;20183;-78
2021/12/23 04:18:29;;;;;;;15.93;7.20;;;-1.40;97.30;;;;;;5034815;28;20424;-78
2021/12/23 04:20:55;;;;;;;17.17;6.50;;;-1.40;97.30;;;;;;5042032;28;20954;-80
2021/12/23 04:23:29;;;;;;;19.97;7.47;;;-1.40;97.30;;;;;;5057506;28;20186;-80
2021/12/23 04:25:56;;;;;;;17.03;7.00;;;-1.40;97.30;;;;;;5057223;28;20235;-79
2021/12/23 04:28:24;;;;;;;19.33;7.10;;;-1.30;97.30;;;;;;5058232;28;20489;-78
2021/12/23 04:30:50;;;;;;;16.43;6.53;;;-1.30;97.30;;;;;;5058081;28;20433;-78
2021/12/23 04:33:16;;;;;;;17.47;7.30;;;-1.30;97.30;;;;;;5057726;28;20413;-79
2021/12/23 04:35:42;;;;;;;14.23;6.17;;;-1.30;97.30;;;;;;5040336;28;20410;-79
2021/12/23 04:38:08;;;;;;;16.17;6.70;;;-1.30;97.30;;;;;;5055532;28;20493;-79
2021/12/23 04:40:35;;;;;;;16.60;7.30;;;-1.30;97.30;;;;;;5057487;28;20193;-79
2021/12/23 04:43:05;;;;;;;15.40;6.80;;;-1.30;97.30;;;;;;5052334;28;20659;-79
2021/12/23 04:45:31;;;;;;;13.43;6.13;;;-1.30;97.30;;;;;;5035702;28;20876;-79
2021/12/23 04:47:57;;;;;;;19.50;7.10;;;-1.20;97.30;;;;;;5035351;28;20552;-79
2021/12/23 04:50:23;;;;;;;20.60;7.40;;;-1.20;97.30;;;;;;5036909;28;20458;-80
2021/12/23 04:52:51;;;;;;;21.93;8.10;;;-1.30;97.30;;;;;;5054682;28;20174;-81
2021/12/23 04:55:17;;;;;;;20.63;7.50;;;-1.20;97.30;;;;;;5031836;28;20417;-77
2021/12/23 04:57:44;;;;;;;21.23;7.27;;;-1.20;97.30;;;;;;5040480;28;20436;-78
2021/12/23 05:00:13;;;;;;;11.00;5.87;;;-1.20;97.30;;;;;;5049812;28;20457;-77
2021/12/23 05:02:39;;;;;;;17.27;7.30;;;-1.20;97.30;;;;;;5056171;28;20418;-80
2021/12/23 05:05:06;;;;;;;15.03;7.00;;;-1.20;97.30;;;;;;5045276;28;20431;-79
2021/12/23 05:07:31;;;;;;;18.20;7.23;;;-1.20;97.30;;;;;;5057429;28;20532;-79
2021/12/23 05:09:57;;;;;;;15.37;7.87;;;-1.20;97.30;;;;;;5047550;28;20418;-79
2021/12/23 05:12:23;;;;;;;16.73;5.97;;;-1.20;97.30;;;;;;5039585;28;20267;-79
2021/12/23 05:14:48;;;;;;;17.07;6.83;;;-1.10;97.30;;;;;;5060541;28;20176;-77
2021/12/23 05:17:14;;;;;;;13.07;6.37;;;-1.10;97.30;;;;;;5037755;28;20184;-78
2021/12/23 05:19:40;;;;;;;15.60;5.83;;;-1.10;97.30;;;;;;5040550;28;20191;-78
2021/12/23 05:22:05;;;;;;;17.57;5.83;;;-1.10;97.30;;;;;;5046144;28;20175;-77
2021/12/23 05:24:32;;;;;;;17.10;7.20;;;-1.10;97.30;;;;;;5062083;28;20175;-77
2021/12/23 05:26:58;;;;;;;18.90;6.10;;;-1.10;97.30;;;;;;5061468;28;20192;-80
2021/12/23 05:29:23;;;;;;;16.97;7.23;;;-1.10;97.30;;;;;;5044847;28;20414;-79
2021/12/23 05:31:49;;;;;;;13.00;6.67;;;-1.00;97.30;;;;;;5045119;28;20438;-79
2021/12/23 05:34:14;;;;;;;13.90;6.40;;;-1.00;97.30;;;;;;5048460;28;20369;-80
2021/12/23 05:36:41;;;;;;;20.50;7.30;;;-1.00;97.30;;;;;;5066359;28;20224;-82
2021/12/23 05:39:07;;;;;;;17.27;6.60;;;-1.00;97.30;;;;;;5033525;28;20176;-77
2021/12/23 05:41:33;;;;;;;19.40;6.67;;;-1.00;97.30;;;;;;5048815;28;20866;-77
2021/12/23 05:43:59;;;;;;;19.33;7.50;;;-1.00;97.30;;;;;;5031886;28;20446;-79
2021/12/23 05:46:25;;;;;;;16.47;6.20;;;-1.00;97.30;;;;;;5033469;28;20637;-78
2021/12/23 05:48:50;;;;;;;16.37;7.17;;;-1.00;97.30;;;;;;5051784;28;20168;-78
2021/12/23 05:51:16;;;;;;;13.40;6.50;;;-1.00;97.30;;;;;;5036417;28;20434;-79
2021/12/23 05:53:41;;;;;;;16.57;7.70;;;-1.00;97.30;;;;;;5041111;28;20551;-78
2021/12/23 05:56:07;;;;;;;15.20;6.40;;;-1.00;97.30;;;;;;5048830;28;20194;-78
2021/12/23 05:58:33;;;;;;;13.63;6.00;;;-1.00;97.30;;;;;;5056684;28;20244;-79
2021/12/23 06:01:00;;;;;;;21.20;6.70;;;-1.00;97.30;;;;;;5057909;28;20707;-82
2021/12/23 06:03:26;;;;;;;15.17;7.27;;;-1.00;97.30;;;;;;5057775;28;20199;-81
2021/12/23 06:05:52;;;;;;;21.77;7.00;;;-1.00;97.30;;;;;;5057993;28;20474;-81
2021/12/23 06:08:18;;;;;;;13.97;5.70;;;-1.00;97.30;;;;;;5055893;28;20510;-78
2021/12/23 06:10:44;;;;;;;16.13;6.33;;;-0.90;97.30;;;;;;5054809;28;20483;-77
2021/12/23 06:13:09;;;;;;;15.47;6.60;;;-1.00;97.30;;;;;;5054647;28;20451;-77
2021/12/23 06:15:36;;;;;;;21.67;7.00;;;-1.00;97.30;;;;;;5055564;28;20254;-78
2021/12/23 06:18:02;;;;;;;15.30;6.73;;;-1.00;97.30;;;;;;5053719;28;20202;-79
2021/12/23 06:20:27;;;;;;;16.13;8.03;;;-0.90;97.30;;;;;;5053453;28;20506;-78
2021/12/23 06:22:53;;;;;;;14.43;5.80;;;-0.90;97.30;;;;;;5054600;28;21002;-80
2021/12/23 06:25:19;;;;;;;14.10;6.20;;;-0.90;97.30;;;;;;5054692;28;20239;-80
2021/12/23 06:27:44;;;;;;;15.80;6.50;;;-0.80;97.30;;;;;;5055722;28;20195;-79
2021/12/23 06:32:44;;;;;;;17.20;7.00;;;-0.80;97.30;;;;;;5073195;28;20250;-81
2021/12/23 06:35:10;;;;;;;14.30;5.90;;;-0.80;97.30;;;;;;5055252;28;20417;-80
2021/12/23 06:37:35;;;;;;;20.23;7.83;;;-0.80;97.30;;;;;;5055318;28;20470;-80
2021/12/23 06:40:01;;;;;;;18.03;6.83;;;-0.80;97.30;;;;;;5055348;28;20491;-80
2021/12/23 06:42:27;;;;;;;14.57;6.57;;;-0.90;97.30;;;;;;5055553;28;20673;-80
2021/12/23 06:44:53;;;;;;;19.37;7.00;;;-0.90;97.30;;;;;;5037090;28;20701;-79
2021/12/23 06:47:19;;;;;;;14.90;6.50;;;-0.90;97.30;;;;;;5034529;28;20545;-80
2021/12/23 06:49:47;;;;;;;13.40;6.07;;;-0.90;97.30;;;;;;5035358;28;20204;-80
2021/12/23 06:52:13;;;;;;;13.53;6.87;;;-0.90;97.30;;;;;;5034931;28;20927;-80
2021/12/23 06:54:42;;;;;;;15.50;7.00;;;-0.90;97.30;;;;;;5033619;28;20446;-80
2021/12/23 06:57:08;;;;;;;19.67;6.60;;;-0.90;97.30;;;;;;5052880;28;20509;-80
2021/12/23 06:59:34;;;;;;;15.90;6.10;;;-0.80;97.30;;;;;;5034694;28;20418;-81
2021/12/23 07:02:00;;;;;;;19.43;7.20;;;-0.80;97.30;;;;;;5033732;28;20456;-81
2021/12/23 07:04:30;;;;;;;15.60;9.10;;;-0.80;97.30;;;;;;5033609;28;20171;-82
2021/12/23 07:07:08;;;;;;;17.20;6.37;;;-0.80;97.30;;;;;;5035247;28;20481;-81
2021/12/23 07:09:36;;;;;;;14.87;6.47;;;-0.70;97.30;;;;;;5033784;28;20421;-82
2021/12/23 07:12:03;;;;;;;14.53;6.43;;;-0.70;97.30;;;;;;5033340;28;20443;-79
2021/12/23 07:14:29;;;;;;;17.30;7.00;;;-0.70;97.30;;;;;;5051401;28;20398;-81
2021/12/23 07:16:54;;;;;;;18.10;6.77;;;-0.70;97.30;;;;;;5035196;28;20780;-80
2021/12/23 07:19:24;;;;;;;16.60;7.27;;;-0.70;97.30;;;;;;5034796;28;20214;-77
2021/12/23 07:21:56;;;;;;;22.03;6.20;;;-0.60;97.30;;;;;;5034425;28;20321;-77
2021/12/23 07:24:22;;;;;;;26.50;7.33;;;-0.60;97.30;;;;;;5052151;28;20406;-76
2021/12/23 07:26:48;;;;;;;14.30;6.63;;;-0.60;97.30;;;;;;5034157;28;20462;-77
2021/12/23 07:29:14;;;;;;;13.40;6.97;;;-0.60;97.30;;;;;;5034972;28;21058;-81
2021/12/23 07:31:39;;;;;;;14.30;6.10;;;-0.50;97.30;;;;;;5034553;28;20188;-80
2021/12/23 07:34:05;;;;;;;16.27;6.60;;;-0.40;97.30;;;;;;5034994;28;20402;-81
2021/12/23 07:36:31;;;;;;;18.23;5.73;;;-0.50;97.30;;;;;;5039994;28;20270;-81
2021/12/23 07:38:57;;;;;;;16.27;6.90;;;-0.40;97.30;;;;;;5062466;28;20254;-82
2021/12/23 07:41:27;;;;;;;14.63;6.10;;;-0.40;97.30;;;;;;5064360;28;20489;-82
2021/12/23 07:44:03;;;;;;;14.27;6.23;;;-0.40;97.30;;;;;;5074439;28;20485;-81
2021/12/23 07:46:33;;;;;;;18.40;6.90;;;-0.30;97.30;;;;;;5051312;28;20544;-80
2021/12/23 07:49:02;;;;;;;18.00;6.77;;;-0.30;97.30;;;;;;5048327;28;20836;-80
2021/12/23 07:51:28;;;;;;;14.33;5.77;;;-0.30;97.30;;;;;;5041075;28;20443;-80
2021/12/23 07:53:54;;;;;;;14.40;5.87;;;-0.30;97.30;;;;;;5073328;28;20404;-80
2021/12/23 07:56:28;;;;;;;17.73;7.60;;;-0.20;97.30;;;;;;5069072;28;20205;-80
2021/12/23 07:58:54;;;;;;;17.60;6.70;;;-0.20;97.30;;;;;;5058098;28;20246;-80
2021/12/23 08:01:19;;;;;;;17.87;7.40;;;-0.20;97.30;;;;;;5052202;28;20520;-76
2021/12/23 08:03:45;;;;;;;15.20;5.83;;;-0.20;97.30;;;;;;5052732;28;20171;-77
2021/12/23 08:06:11;;;;;;;13.23;5.90;;;-0.20;97.30;;;;;;5052370;28;20199;-76
2021/12/23 08:08:37;;;;;;;18.07;6.70;;;-0.10;97.30;;;;;;5041559;28;20233;-80
2021/12/23 08:11:03;;;;;;;14.60;7.47;;;-0.10;97.30;;;;;;5037904;28;20203;-80
2021/12/23 08:13:29;;;;;;;18.83;7.00;;;-0.10;97.30;;;;;;5055038;28;20168;-80
2021/12/23 08:15:55;;;;;;;15.10;6.70;;;-0.10;97.30;;;;;;5055049;28;20410;-78
2021/12/23 08:18:21;;;;;;;13.00;6.20;;;-0.10;97.30;;;;;;5058105;28;20416;-78
2021/12/23 08:20:46;;;;;;;22.70;7.00;;;0.00;97.30;;;;;;5057696;28;20191;-79
2021/12/23 08:23:12;;;;;;;19.90;8.63;;;0.00;97.30;;;;;;5057739;28;20417;-77
2021/12/23 08:25:38;;;;;;;14.97;7.00;;;0.00;97.30;;;;;;5056443;28;20217;-76
2021/12/23 08:28:04;;;;;;;15.40;7.33;;;0.10;97.30;;;;;;5053386;28;20207;-79
2021/12/23 08:30:31;;;;;;;17.87;7.13;;;0.10;97.30;;;;;;5058106;28;20565;-79
2021/12/23 08:32:57;;;;;;;22.53;7.07;;;0.10;97.30;;;;;;5059367;28;20414;-77
2021/12/23 08:35:23;;;;;;;17.63;7.50;;;0.20;97.30;;;;;;5052595;28;20444;-76
2021/12/23 08:37:49;;;;;;;15.20;6.67;;;0.20;97.30;;;;;;5048938;28;20234;-76
2021/12/23 08:40:18;;;;;;;16.20;7.80;;;0.20;97.30;;;;;;5050158;28;21072;-77
2021/12/23 08:42:44;;;;;;;16.23;6.70;;;0.30;97.30;;;;;;5048762;28;20420;-76
2021/12/23 08:45:10;;;;;;;24.23;6.43;;;0.30;97.30;;;;;;5048742;28;20576;-77
2021/12/23 08:47:36;;;;;;;13.27;6.40;;;0.40;97.30;;;;;;5048735;28;20199;-77
2021/12/23 08:50:05;;;;;;;18.80;7.53;;;0.40;97.30;;;;;;5051064;28;20200;-79
2021/12/23 08:52:31;;;;;;;19.03;7.40;;;0.50;97.30;;;;;;5053006;28;20875;-80
2021/12/23 08:54:56;;;;;;;14.70;6.77;;;0.50;97.30;;;;;;5052742;28;20468;-80
2021/12/23 08:57:22;;;;;;;24.30;6.43;;;0.50;97.30;;;;;;5033216;28;20638;-80
2021/12/23 08:59:47;;;;;;;16.90;7.40;;;0.60;97.30;;;;;;5032839;28;20578;-80
2021/12/23 09:02:15;;;;;;;19.50;7.40;;;0.60;97.30;;;;;;5032957;28;20180;-80
2021/12/23 09:04:41;;;;;;;17.47;7.20;;;0.60;97.30;;;;;;5033059;28;20172;-79
2021/12/23 09:07:08;;;;;;;14.83;6.90;;;0.70;97.30;;;;;;5034140;28;20466;-79
2021/12/23 09:09:35;;;;;;;23.97;8.80;;;0.70;97.30;;;;;;5034193;28;20415;-79
2021/12/23 09:12:03;;;;;;;13.63;7.27;;;0.70;97.30;;;;;;5034279;28;20431;-78
2021/12/23 09:14:29;;;;;;;19.67;8.00;;;0.70;97.30;;;;;;5032685;28;20426;-80
2021/12/23 09:16:54;;;;;;;20.63;9.17;;;0.70;97.30;;;;;;5033366;28;20765;-80
2021/12/23 09:19:20;;;;;;;18.97;6.77;;;0.70;97.30;;;;;;5033404;28;20190;-80
2021/12/23 09:21:46;;;;;;;17.30;7.40;;;0.80;97.30;;;;;;5033284;28;20202;-80
2021/12/23 09:24:12;;;;;;;22.23;7.77;;;0.80;97.30;;;;;;5034249;28;20352;-80
2021/12/23 09:26:48;;;;;;;29.40;8.70;;;0.80;97.30;;;;;;5036296;28;20985;-80
2021/12/23 09:35:03;;;;;;;15.67;8.43;;;0.80;97.30;;;;;;5036066;28;20510;-80
2021/12/23 09:37:29;;;;;;;12.40;6.50;;;0.90;97.30;;;;;;5036725;28;20471;-82
2021/12/23 09:39:57;;;;;;;23.90;9.20;;;0.90;97.30;;;;;;5036486;28;20437;-81
2021/12/23 09:42:26;;;;;;;16.73;7.80;;;0.90;97.30;;;;;;5036958;28;20743;-82
2021/12/23 09:44:57;;;;;;;18.33;7.83;;;0.90;97.30;;;;;;5036440;28;20447;-82
2021/12/23 09:47:27;;;;;;;14.07;7.20;;;0.90;97.30;;;;;;5036628;28;20496;-81
2021/12/23 09:49:55;;;;;;;19.67;7.90;;;0.90;97.30;;;;;;5036808;28;20952;-81
2021/12/23 09:52:23;;;;;;;20.50;8.20;;;0.90;97.30;;;;;;5036322;28;21006;-80
2021/12/23 09:54:52;;;;;;;19.83;8.67;;;1.00;97.30;;;;;;5036641;28;20509;-82
2021/12/23 09:57:18;;;;;;;14.50;7.30;;;1.00;97.30;;;;;;5054709;28;20456;-80
2021/12/23 09:59:44;;;;;;;19.37;7.90;;;1.00;97.30;;;;;;5055685;28;20414;-81
2021/12/23 10:02:10;;;;;;;18.20;7.97;;;1.00;97.30;;;;;;5054335;28;20437;-81
2021/12/23 10:04:36;;;;;;;19.63;8.50;;;1.00;97.30;;;;;;5049459;28;20297;-82
2021/12/23 10:07:03;;;;;;;20.43;8.13;;;1.00;97.30;;;;;;5048463;28;20492;-83
2021/12/23 10:31:32;;;;;;;22.37;9.07;;;1.00;97.30;;;;;;5054272;28;20433;-81
2021/12/23 10:37:21;;;;;;;25.80;8.67;;;1.10;97.30;;;;;;5046706;28;20474;-82
2021/12/23 10:40:02;;;;;;;21.20;8.10;;;1.10;97.30;;;;;;5053863;28;20507;-81
2021/12/23 10:42:28;;;;;;;16.30;7.57;;;1.20;97.30;;;;;;5068318;28;20428;-81
2021/12/23 10:44:57;;;;;;;20.37;8.60;;;1.20;97.30;;;;;;5081419;28;20933;-81
2021/12/23 10:47:55;;;;;;;20.20;8.47;;;1.30;97.30;;;;;;5057926;28;20272;-82
2021/12/23 10:50:48;;;;;;;20.80;8.63;;;1.30;97.30;;;;;;5064280;28;21048;-81
2021/12/23 10:59:17;;;;;;;20.20;9.20;;;1.40;97.30;;;;;;5076106;28;20462;-81
2021/12/23 11:02:02;;;;;;;27.70;10.53;;;1.40;97.30;;;;;;5057444;28;20433;-81
2021/12/23 11:04:30;;;;;;;21.07;9.40;;;1.40;97.30;;;;;;5051506;28;20736;-81
2021/12/23 11:07:25;;;;;;;22.63;9.47;;;1.40;97.30;;;;;;5037749;28;20467;-84
2021/12/23 11:30:04;;;;;;;32.63;10.40;;;1.50;97.30;;;;;;5056150;28;20465;-81
2021/12/23 11:38:23;;;;;;;20.73;9.60;;;1.50;97.30;;;;;;5055406;28;20429;-81
2021/12/23 11:40:53;;;;;;;21.03;9.90;;;1.60;97.30;;;;;;5054668;28;20438;-82
2021/12/23 11:45:49;;;;;;;24.17;9.60;;;1.60;97.30;;;;;;5083182;28;20412;-81
2021/12/23 11:48:16;;;;;;;35.33;10.30;;;1.60;97.30;;;;;;5061697;28;20293;-81
2021/12/23 11:50:54;;;;;;;23.77;10.10;;;1.60;97.30;;;;;;5055649;28;20466;-82
2021/12/23 11:53:24;;;;;;;22.17;9.07;;;1.70;97.30;;;;;;5044346;28;20764;-82
2021/12/23 11:55:50;;;;;;;27.27;10.93;;;1.70;97.30;;;;;;5038769;28;20422;-83
2021/12/23 11:58:20;;;;;;;23.20;9.90;;;1.70;97.30;;;;;;5039425;28;20425;-82
2021/12/23 12:01:07;;;;;;;21.50;10.07;;;1.70;97.30;;;;;;5038959;28;20832;-82
2021/12/23 12:03:54;;;;;;;25.30;9.53;;;1.70;97.30;;;;;;5043051;28;20426;-82
2021/12/23 12:06:32;;;;;;;21.50;9.87;;;1.70;97.30;;;;;;5055987;28;20959;-81
2021/12/23 12:09:23;;;;;;;22.63;9.90;;;1.80;97.30;;;;;;5037031;28;20509;-83
2021/12/23 12:12:07;;;;;;;25.87;11.90;;;1.80;97.30;;;;;;5055567;28;20619;-82
2021/12/23 12:14:44;;;;;;;20.53;9.77;;;1.80;97.30;;;;;;5053288;28;20417;-82
2021/12/23 12:17:24;;;;;;;23.50;9.60;;;1.80;97.30;;;;;;5064021;28;20432;-84
2021/12/23 12:20:25;;;;;;;23.97;10.27;;;1.80;97.30;;;;;;5060399;28;20450;-83
2021/12/23 12:23:23;;;;;;;21.10;9.57;;;1.80;97.30;;;;;;5061261;28;20456;-83
2021/12/23 12:25:58;;;;;;;27.23;10.00;;;1.90;97.30;;;;;;5018449;28;20442;-84
2021/12/23 12:28:27;;;;;;;23.53;10.10;;;1.90;97.30;;;;;;5044764;28;20432;-83
2021/12/23 12:31:06;;;;;;;28.73;11.20;;;1.90;97.30;;;;;;5042679;28;20442;-84
2021/12/23 12:33:35;;;;;;;21.00;10.33;;;1.90;97.30;;;;;;5040129;28;20423;-84
2021/12/23 12:36:03;;;;;;;20.30;9.70;;;1.90;97.30;;;;;;5040121;28;20461;-83
2021/12/23 12:38:37;;;;;;;21.23;9.93;;;1.90;97.30;;;;;;5033690;28;20446;-83
2021/12/23 12:41:33;;;;;;;28.80;9.73;;;2.00;97.30;;;;;;5032579;28;20530;-83
2021/12/23 12:44:28;;;;;;;26.60;11.17;;;2.00;97.30;;;;;;5031664;28;20465;-84
2021/12/23 12:47:17;;;;;;;21.93;9.97;;;2.00;97.30;;;;;;5039465;28;20459;-85
2021/12/23 12:49:49;;;;;;;23.13;10.20;;;2.00;97.30;;;;;;5042366;28;20935;-83
2021/12/23 12:52:22;;;;;;;26.67;10.83;;;2.10;97.30;;;;;;5042381;28;20795;-84
2021/12/23 12:54:51;;;;;;;30.03;10.33;;;2.10;97.30;;;;;;5046723;28;20423;-83
2021/12/23 12:57:19;;;;;;;32.97;11.73;;;2.10;97.30;;;;;;5034622;28;20426;-83
2021/12/23 12:59:48;;;;;;;28.43;10.80;;;2.20;97.30;;;;;;5035760;28;20798;-84
2021/12/23 13:02:30;;;;;;;24.80;11.00;;;2.20;97.30;;;;;;5040912;28;20426;-82
2021/12/23 13:05:00;;;;;;;29.30;12.57;;;2.20;97.30;;;;;;5058580;28;20402;-82
2021/12/23 13:07:34;;;;;;;28.23;10.43;;;2.20;97.30;;;;;;5044893;28;20819;-82
2021/12/23 13:10:08;;;;;;;37.23;12.63;;;2.20;97.30;;;;;;5041700;28;20423;-82
2021/12/23 13:12:47;;;;;;;24.87;9.90;;;2.20;97.30;;;;;;5046789;28;20528;-83
2021/12/23 13:15:19;;;;;;;22.13;9.73;;;2.30;97.30;;;;;;5038630;28;20438;-83
2021/12/23 13:18:07;;;;;;;27.70;11.27;;;2.30;97.30;;;;;;5040733;28;20418;-85
2021/12/23 13:20:48;;;;;;;23.67;10.30;;;2.40;97.30;;;;;;5050979;28;20469;-82
2021/12/23 13:23:16;;;;;;;26.67;12.00;;;2.40;97.30;;;;;;5052981;28;20410;-83
2021/12/23 13:25:53;;;;;;;26.60;11.43;;;2.40;97.30;;;;;;5033972;28;20426;-82
2021/12/23 13:28:34;;;;;;;21.90;10.07;;;2.40;97.30;;;;;;5034303;28;20552;-80
2021/12/23 13:31:01;;;;;;;27.63;10.47;;;2.50;97.30;;;;;;5050231;28;20438;-83
2021/12/23 13:33:27;;;;;;;27.33;10.70;;;2.50;97.30;;;;;;5036447;28;20425;-81
2021/12/23 13:35:54;;;;;;;27.20;10.80;;;2.50;97.30;;;;;;5038625;28;20431;-80
2021/12/23 13:38:46;;;;;;;28.30;11.00;;;2.50;97.30;;;;;;5040875;28;20179;-79
2021/12/23 13:41:27;;;;;;;20.27;8.80;;;2.60;97.30;;;;;;5054274;28;20482;-81
2021/12/23 13:44:15;;;;;;;23.03;9.90;;;2.60;97.30;;;;;;5042208;28;20422;-80
2021/12/23 13:46:54;;;;;;;24.53;10.43;;;2.60;97.30;;;;;;5060054;28;20442;-80
2021/12/23 13:49:46;;;;;;;22.70;10.20;;;2.70;97.30;;;;;;5042638;28;20422;-79
2021/12/23 13:52:17;;;;;;;19.70;10.10;;;2.70;97.30;;;;;;5043364;28;20417;-80
2021/12/23 13:54:43;;;;;;;18.00;9.33;;;2.70;97.30;;;;;;5042747;28;20425;-80
2021/12/23 13:57:12;;;;;;;25.40;10.77;;;2.70;97.30;;;;;;5043039;28;20422;-79
2021/12/23 13:59:37;;;;;;;28.00;10.93;;;2.70;97.30;;;;;;5042670;28;20176;-80
2021/12/23 14:02:12;;;;;;;25.10;11.30;;;2.70;97.30;;;;;;5043876;28;20453;-80
2021/12/23 14:04:49;;;;;;;18.47;10.00;;;2.70;97.30;;;;;;5042868;28;20176;-81